VIR97K EGCC-EGPH
Flight info
| Callsign | VIR97K |
|---|---|
| Flight time | 0h 35m |
| Altitude | 24000 |
| Route | POL N601 INPIP |
| Aircraft | A35K/H-SDE2E3GHIJ3J4J5LM1ORWXY/LB1D1 |
Departure
| Time | 2026-05-07 17:05 |
|---|---|
| Airport | Manchester Airport (EGCC) |
Arrival
| Time | 2026-05-07 17:40 |
|---|---|
| Airport | Edinburgh Airport (EGPH) |
| Time | Latitude | Longitude | Altitude | Speed | Heading |
|---|---|---|---|---|---|
| 2026-05-07 16:40 | 53.36635 | -2.28257 | 262 ft | 0 kts | 315° |
| 2026-05-07 16:51 | 53.36624 | -2.28238 | 263 ft | 4 kts | 314° |
| 2026-05-07 16:51 | 53.36605 | -2.28205 | 265 ft | 4 kts | 313° |
| 2026-05-07 16:51 | 53.36586 | -2.28172 | 267 ft | 4 kts | 313° |
| 2026-05-07 16:51 | 53.36568 | -2.28139 | 265 ft | 4 kts | 312° |
| 2026-05-07 16:52 | 53.36550 | -2.28106 | 265 ft | 4 kts | 312° |
| 2026-05-07 16:52 | 53.36538 | -2.28084 | 265 ft | 4 kts | 314° |
| 2026-05-07 16:52 | 53.36544 | -2.28092 | 265 ft | 4 kts | 318° |
| 2026-05-07 16:52 | 53.36562 | -2.28125 | 264 ft | 4 kts | 306° |
| 2026-05-07 16:53 | 53.36565 | -2.28163 | 261 ft | 4 kts | 255° |
| 2026-05-07 16:53 | 53.36549 | -2.28193 | 261 ft | 4 kts | 223° |
| 2026-05-07 16:53 | 53.36533 | -2.28218 | 261 ft | 1 kts | 224° |
| 2026-05-07 16:56 | 53.36510 | -2.28255 | 261 ft | 7 kts | 224° |
| 2026-05-07 16:57 | 53.36466 | -2.28327 | 261 ft | 9 kts | 224° |
| 2026-05-07 16:57 | 53.36412 | -2.28381 | 261 ft | 9 kts | 178° |
| 2026-05-07 16:57 | 53.36355 | -2.28304 | 261 ft | 13 kts | 134° |
| 2026-05-07 16:57 | 53.36287 | -2.28188 | 261 ft | 15 kts | 135° |
| 2026-05-07 16:58 | 53.36204 | -2.28050 | 261 ft | 16 kts | 135° |
| 2026-05-07 16:58 | 53.36138 | -2.27951 | 261 ft | 12 kts | 142° |
| 2026-05-07 16:58 | 53.36060 | -2.27849 | 261 ft | 15 kts | 142° |
| 2026-05-07 16:58 | 53.35979 | -2.27749 | 261 ft | 13 kts | 152° |
| 2026-05-07 16:59 | 53.35913 | -2.27729 | 261 ft | 9 kts | 179° |
| 2026-05-07 16:59 | 53.35887 | -2.27729 | 261 ft | 2 kts | 181° |
| 2026-05-07 16:59 | 53.35853 | -2.27732 | 260 ft | 7 kts | 182° |
| 2026-05-07 16:59 | 53.35792 | -2.27696 | 257 ft | 9 kts | 146° |
| 2026-05-07 17:00 | 53.35730 | -2.27642 | 255 ft | 9 kts | 157° |
| 2026-05-07 17:00 | 53.35671 | -2.27589 | 253 ft | 8 kts | 145° |
| 2026-05-07 17:00 | 53.35617 | -2.27519 | 251 ft | 10 kts | 141° |
| 2026-05-07 17:00 | 53.35577 | -2.27465 | 251 ft | 9 kts | 141° |
| 2026-05-07 17:01 | 53.35514 | -2.27379 | 254 ft | 14 kts | 140° |
| 2026-05-07 17:01 | 53.35427 | -2.27262 | 253 ft | 18 kts | 141° |
| 2026-05-07 17:01 | 53.35340 | -2.27193 | 250 ft | 12 kts | 178° |
| 2026-05-07 17:01 | 53.35242 | -2.27219 | 242 ft | 12 kts | 191° |
| 2026-05-07 17:02 | 53.35167 | -2.27245 | 237 ft | 2 kts | 192° |
| 2026-05-07 17:02 | 53.35166 | -2.27245 | 237 ft | 0 kts | 192° |
| 2026-05-07 17:03 | 53.35130 | -2.27258 | 239 ft | 10 kts | 192° |
| 2026-05-07 17:03 | 53.35054 | -2.27285 | 235 ft | 10 kts | 192° |
| 2026-05-07 17:03 | 53.34992 | -2.27358 | 232 ft | 12 kts | 229° |
| 2026-05-07 17:04 | 53.34962 | -2.27418 | 233 ft | 1 kts | 231° |
| 2026-05-07 17:04 | 53.34939 | -2.27464 | 233 ft | 22 kts | 231° |
| 2026-05-07 17:04 | 53.34634 | -2.28094 | 238 ft | 115 kts | 231° |
| 2026-05-07 17:04 | 53.33972 | -2.29476 | 331 ft | 181 kts | 232° |
| 2026-05-07 17:05 | 53.33318 | -2.31309 | 1403 ft | 186 kts | 247° |
| 2026-05-07 17:05 | 53.33260 | -2.33539 | 2420 ft | 208 kts | 279° |
| 2026-05-07 17:05 | 53.34083 | -2.35767 | 2924 ft | 249 kts | 317° |
| 2026-05-07 17:05 | 53.35564 | -2.37537 | 3687 ft | 270 kts | 326° |
| 2026-05-07 17:06 | 53.37175 | -2.39277 | 4716 ft | 280 kts | 326° |
| 2026-05-07 17:06 | 53.38733 | -2.41184 | 6032 ft | 275 kts | 319° |
| 2026-05-07 17:06 | 53.40214 | -2.43193 | 7372 ft | 275 kts | 321° |
| 2026-05-07 17:06 | 53.41940 | -2.44664 | 8638 ft | 282 kts | 337° |
| 2026-05-07 17:07 | 53.43817 | -2.45724 | 9891 ft | 288 kts | 341° |
| 2026-05-07 17:07 | 53.45845 | -2.46282 | 10810 ft | 310 kts | 358° |
| 2026-05-07 17:07 | 53.48024 | -2.45379 | 11349 ft | 340 kts | 28° |
| 2026-05-07 17:07 | 53.50003 | -2.43005 | 12131 ft | 356 kts | 41° |
| 2026-05-07 17:08 | 53.51934 | -2.40323 | 13194 ft | 365 kts | 41° |
| 2026-05-07 17:08 | 53.53920 | -2.37598 | 14238 ft | 372 kts | 40° |
| 2026-05-07 17:08 | 53.55947 | -2.34859 | 15231 ft | 377 kts | 40° |
| 2026-05-07 17:08 | 53.58011 | -2.32090 | 16272 ft | 381 kts | 39° |
| 2026-05-07 17:09 | 53.60099 | -2.29298 | 17351 ft | 386 kts | 39° |
| 2026-05-07 17:09 | 53.62218 | -2.26469 | 18456 ft | 391 kts | 39° |
| 2026-05-07 17:09 | 53.64369 | -2.23606 | 19394 ft | 397 kts | 39° |
| 2026-05-07 17:09 | 53.66547 | -2.20699 | 20327 ft | 402 kts | 39° |
| 2026-05-07 17:10 | 53.68757 | -2.17747 | 21252 ft | 408 kts | 39° |
| 2026-05-07 17:10 | 53.71131 | -2.15053 | 22138 ft | 414 kts | 28° |
| 2026-05-07 17:10 | 53.73833 | -2.13344 | 23048 ft | 419 kts | 12° |
| 2026-05-07 17:10 | 53.76710 | -2.12882 | 23694 ft | 424 kts | 357° |
| 2026-05-07 17:11 | 53.79609 | -2.13723 | 23961 ft | 422 kts | 343° |
| 2026-05-07 17:11 | 53.82366 | -2.15241 | 24006 ft | 415 kts | 339° |
| 2026-05-07 17:11 | 53.85042 | -2.17012 | 24006 ft | 412 kts | 336° |
| 2026-05-07 17:11 | 53.87684 | -2.18894 | 24005 ft | 412 kts | 336° |
| 2026-05-07 17:12 | 53.90316 | -2.20798 | 24006 ft | 412 kts | 335° |
| 2026-05-07 17:12 | 53.92953 | -2.22697 | 24002 ft | 412 kts | 336° |
| 2026-05-07 17:12 | 53.95595 | -2.24573 | 24002 ft | 412 kts | 336° |
| 2026-05-07 17:12 | 53.98246 | -2.26429 | 24003 ft | 412 kts | 336° |
| 2026-05-07 17:13 | 54.00905 | -2.28272 | 24000 ft | 413 kts | 336° |
| 2026-05-07 17:13 | 54.03568 | -2.30103 | 23999 ft | 413 kts | 337° |
| 2026-05-07 17:13 | 54.06236 | -2.31939 | 23995 ft | 413 kts | 336° |
| 2026-05-07 17:13 | 54.08896 | -2.33778 | 23997 ft | 413 kts | 336° |
| 2026-05-07 17:14 | 54.11560 | -2.35625 | 23999 ft | 413 kts | 336° |
| 2026-05-07 17:14 | 54.14221 | -2.37474 | 23998 ft | 413 kts | 336° |
| 2026-05-07 17:14 | 54.16882 | -2.39323 | 23992 ft | 413 kts | 336° |
| 2026-05-07 17:14 | 54.19544 | -2.41169 | 23999 ft | 413 kts | 336° |
| 2026-05-07 17:15 | 54.22209 | -2.43023 | 24005 ft | 413 kts | 336° |
| 2026-05-07 17:15 | 54.24875 | -2.44881 | 23999 ft | 414 kts | 336° |
| 2026-05-07 17:15 | 54.27545 | -2.46742 | 23998 ft | 415 kts | 336° |
| 2026-05-07 17:15 | 54.30219 | -2.48610 | 24000 ft | 415 kts | 336° |
| 2026-05-07 17:16 | 54.32897 | -2.50483 | 23996 ft | 415 kts | 336° |
| 2026-05-07 17:16 | 54.35572 | -2.52356 | 23994 ft | 415 kts | 336° |
| 2026-05-07 17:16 | 54.38239 | -2.54227 | 23996 ft | 415 kts | 336° |
| 2026-05-07 17:16 | 54.40913 | -2.56106 | 23996 ft | 415 kts | 336° |
| 2026-05-07 17:17 | 54.43586 | -2.57986 | 23991 ft | 415 kts | 336° |
| 2026-05-07 17:17 | 54.46259 | -2.59868 | 23991 ft | 415 kts | 336° |
| 2026-05-07 17:17 | 54.48929 | -2.61750 | 23991 ft | 415 kts | 336° |
| 2026-05-07 17:17 | 54.51605 | -2.63636 | 23990 ft | 416 kts | 336° |
| 2026-05-07 17:18 | 54.54286 | -2.65528 | 23985 ft | 416 kts | 336° |
| 2026-05-07 17:18 | 54.56964 | -2.67428 | 23985 ft | 416 kts | 336° |
| 2026-05-07 17:18 | 54.59643 | -2.69333 | 23995 ft | 416 kts | 336° |
| 2026-05-07 17:18 | 54.62323 | -2.71239 | 23983 ft | 416 kts | 336° |
| 2026-05-07 17:19 | 54.64993 | -2.73141 | 23985 ft | 415 kts | 336° |
| 2026-05-07 17:19 | 54.67626 | -2.75021 | 23986 ft | 415 kts | 336° |
| 2026-05-07 17:19 | 54.70332 | -2.76953 | 23985 ft | 415 kts | 336° |
| 2026-05-07 17:19 | 54.72961 | -2.78836 | 23982 ft | 415 kts | 335° |
| 2026-05-07 17:20 | 54.75632 | -2.80780 | 23978 ft | 417 kts | 335° |
| 2026-05-07 17:20 | 54.78306 | -2.82724 | 23974 ft | 417 kts | 335° |
| 2026-05-07 17:20 | 54.80981 | -2.84660 | 23974 ft | 417 kts | 335° |
| 2026-05-07 17:20 | 54.83664 | -2.86597 | 23968 ft | 417 kts | 335° |
| 2026-05-07 17:21 | 54.86347 | -2.88533 | 23971 ft | 417 kts | 335° |
| 2026-05-07 17:21 | 54.89028 | -2.90466 | 23889 ft | 423 kts | 335° |
| 2026-05-07 17:21 | 54.91833 | -2.92496 | 23838 ft | 447 kts | 335° |
| 2026-05-07 17:21 | 54.94729 | -2.94599 | 23722 ft | 452 kts | 335° |
| 2026-05-07 17:22 | 54.97630 | -2.96704 | 23475 ft | 452 kts | 335° |
| 2026-05-07 17:22 | 55.00503 | -2.98788 | 23014 ft | 443 kts | 335° |
| 2026-05-07 17:22 | 55.03322 | -3.00835 | 22429 ft | 436 kts | 335° |
| 2026-05-07 17:22 | 55.06103 | -3.02859 | 21851 ft | 429 kts | 335° |
| 2026-05-07 17:23 | 55.08838 | -3.04852 | 21253 ft | 424 kts | 335° |
| 2026-05-07 17:23 | 55.11546 | -3.06828 | 20667 ft | 419 kts | 335° |
| 2026-05-07 17:23 | 55.14216 | -3.08780 | 20083 ft | 414 kts | 335° |
| 2026-05-07 17:23 | 55.16865 | -3.10718 | 19470 ft | 414 kts | 335° |
| 2026-05-07 17:24 | 55.19553 | -3.12693 | 18834 ft | 422 kts | 335° |
| 2026-05-07 17:24 | 55.22251 | -3.14678 | 18179 ft | 420 kts | 335° |
| 2026-05-07 17:24 | 55.24908 | -3.16633 | 17860 ft | 406 kts | 335° |
| 2026-05-07 17:24 | 55.27459 | -3.18506 | 17497 ft | 385 kts | 335° |
| 2026-05-07 17:25 | 55.29924 | -3.19938 | 16995 ft | 365 kts | 348° |
| 2026-05-07 17:25 | 55.32403 | -3.20034 | 16347 ft | 351 kts | 2° |
| 2026-05-07 17:25 | 55.34811 | -3.19659 | 15513 ft | 344 kts | 4° |
| 2026-05-07 17:25 | 55.37158 | -3.19254 | 14863 ft | 335 kts | 4° |
| 2026-05-07 17:26 | 55.39477 | -3.18864 | 14367 ft | 334 kts | 3° |
| 2026-05-07 17:26 | 55.41783 | -3.18487 | 13879 ft | 332 kts | 3° |
| 2026-05-07 17:26 | 55.44081 | -3.18117 | 13346 ft | 331 kts | 3° |
| 2026-05-07 17:26 | 55.46367 | -3.17755 | 12812 ft | 329 kts | 3° |
| 2026-05-07 17:27 | 55.48639 | -3.17396 | 12296 ft | 327 kts | 3° |
| 2026-05-07 17:27 | 55.50897 | -3.17038 | 11772 ft | 322 kts | 3° |
| 2026-05-07 17:27 | 55.53096 | -3.16693 | 11250 ft | 312 kts | 3° |
| 2026-05-07 17:27 | 55.55223 | -3.16361 | 10757 ft | 303 kts | 2° |
| 2026-05-07 17:28 | 55.57300 | -3.16035 | 10252 ft | 296 kts | 3° |
| 2026-05-07 17:28 | 55.59324 | -3.15717 | 9759 ft | 289 kts | 3° |
| 2026-05-07 17:28 | 55.61311 | -3.15386 | 9218 ft | 284 kts | 3° |
| 2026-05-07 17:28 | 55.63263 | -3.15049 | 8682 ft | 279 kts | 3° |
| 2026-05-07 17:29 | 55.65190 | -3.14713 | 8157 ft | 279 kts | 3° |
| 2026-05-07 17:29 | 55.67140 | -3.14372 | 7641 ft | 283 kts | 3° |
| 2026-05-07 17:29 | 55.69081 | -3.14030 | 7168 ft | 285 kts | 3° |
| 2026-05-07 17:29 | 55.71028 | -3.13670 | 6890 ft | 278 kts | 5° |
| 2026-05-07 17:30 | 55.72917 | -3.13091 | 6594 ft | 274 kts | 9° |
| 2026-05-07 17:30 | 55.74806 | -3.12420 | 6282 ft | 272 kts | 9° |
| 2026-05-07 17:30 | 55.76650 | -3.11756 | 5978 ft | 269 kts | 9° |
| 2026-05-07 17:30 | 55.78476 | -3.11100 | 5696 ft | 267 kts | 9° |
| 2026-05-07 17:31 | 55.80290 | -3.10439 | 5442 ft | 266 kts | 10° |
| 2026-05-07 17:31 | 55.82075 | -3.09789 | 5177 ft | 265 kts | 9° |
| 2026-05-07 17:31 | 55.83878 | -3.09137 | 4933 ft | 264 kts | 10° |
| 2026-05-07 17:31 | 55.85671 | -3.08487 | 4668 ft | 262 kts | 9° |
| 2026-05-07 17:32 | 55.87441 | -3.07696 | 4397 ft | 263 kts | 14° |
| 2026-05-07 17:32 | 55.89199 | -3.06808 | 4144 ft | 263 kts | 15° |
| 2026-05-07 17:32 | 55.90956 | -3.05909 | 3895 ft | 263 kts | 15° |
| 2026-05-07 17:32 | 55.92142 | -3.05305 | 3711 ft | 262 kts | 15° |
| 2026-05-07 17:33 | 55.94461 | -3.04142 | 3367 ft | 259 kts | 14° |
| 2026-05-07 17:33 | 55.96181 | -3.03260 | 3114 ft | 254 kts | 15° |
| 2026-05-07 17:33 | 55.97859 | -3.02595 | 2994 ft | 239 kts | 1° |
| 2026-05-07 17:33 | 55.99442 | -3.02682 | 3001 ft | 217 kts | 351° |
| 2026-05-07 17:34 | 56.00896 | -3.02936 | 2996 ft | 205 kts | 350° |
| 2026-05-07 17:34 | 56.02306 | -3.03210 | 2997 ft | 204 kts | 349° |
| 2026-05-07 17:34 | 56.03647 | -3.03856 | 2991 ft | 197 kts | 323° |
| 2026-05-07 17:34 | 56.04520 | -3.05572 | 2996 ft | 182 kts | 287° |
| 2026-05-07 17:35 | 56.04591 | -3.07707 | 3009 ft | 170 kts | 257° |
| 2026-05-07 17:35 | 56.04280 | -3.09708 | 2998 ft | 167 kts | 241° |
| 2026-05-07 17:35 | 56.03698 | -3.11491 | 2999 ft | 165 kts | 236° |
| 2026-05-07 17:35 | 56.03107 | -3.13247 | 2996 ft | 165 kts | 237° |
| 2026-05-07 17:36 | 56.02519 | -3.15011 | 2850 ft | 164 kts | 237° |
| 2026-05-07 17:36 | 56.01941 | -3.16727 | 2623 ft | 159 kts | 236° |
| 2026-05-07 17:36 | 56.01375 | -3.18405 | 2408 ft | 156 kts | 235° |
| 2026-05-07 17:36 | 56.00824 | -3.20036 | 2193 ft | 150 kts | 235° |
| 2026-05-07 17:37 | 56.00296 | -3.21602 | 1981 ft | 145 kts | 234° |
| 2026-05-07 17:37 | 55.99771 | -3.23150 | 1779 ft | 146 kts | 236° |
| 2026-05-07 17:37 | 55.99264 | -3.24658 | 1575 ft | 136 kts | 235° |
| 2026-05-07 17:37 | 55.98795 | -3.26040 | 1399 ft | 123 kts | 236° |
| 2026-05-07 17:38 | 55.98371 | -3.27296 | 1241 ft | 114 kts | 234° |
| 2026-05-07 17:38 | 55.97967 | -3.28484 | 1098 ft | 111 kts | 234° |
| 2026-05-07 17:38 | 55.97570 | -3.29659 | 942 ft | 112 kts | 233° |
| 2026-05-07 17:38 | 55.97299 | -3.30452 | 834 ft | 115 kts | 234° |
| 2026-05-07 17:39 | 55.96759 | -3.32060 | 607 ft | 113 kts | 233° |
| 2026-05-07 17:39 | 55.96339 | -3.33245 | 449 ft | 113 kts | 236° |
| 2026-05-07 17:39 | 55.95945 | -3.34451 | 302 ft | 112 kts | 238° |
| 2026-05-07 17:39 | 55.95678 | -3.35250 | 211 ft | 111 kts | 234° |
| 2026-05-07 17:40 | 55.95281 | -3.36436 | 117 ft | 109 kts | 234° |
| 2026-05-07 17:40 | 55.94880 | -3.37603 | 115 ft | 56 kts | 239° |
| 2026-05-07 17:40 | 55.94790 | -3.37870 | 116 ft | 21 kts | 239° |
| 2026-05-07 17:40 | 55.94738 | -3.38021 | 116 ft | 11 kts | 233° |
| 2026-05-07 17:41 | 55.94675 | -3.38038 | 118 ft | 10 kts | 155° |
| 2026-05-07 17:41 | 55.94622 | -3.37982 | 117 ft | 7 kts | 149° |
| 2026-05-07 17:41 | 55.94596 | -3.37949 | 117 ft | 5 kts | 136° |
| 2026-05-07 17:41 | 55.94595 | -3.37880 | 117 ft | 8 kts | 71° |
| 2026-05-07 17:42 | 55.94628 | -3.37775 | 117 ft | 11 kts | 59° |
| 2026-05-07 17:42 | 55.94671 | -3.37648 | 117 ft | 12 kts | 59° |
| 2026-05-07 17:42 | 55.94726 | -3.37484 | 117 ft | 18 kts | 59° |
| 2026-05-07 17:42 | 55.94796 | -3.37276 | 118 ft | 21 kts | 59° |
| 2026-05-07 17:43 | 55.94876 | -3.37043 | 118 ft | 24 kts | 58° |
| 2026-05-07 17:43 | 55.94971 | -3.36762 | 117 ft | 26 kts | 59° |
| 2026-05-07 17:43 | 55.95057 | -3.36510 | 117 ft | 24 kts | 59° |
| 2026-05-07 17:43 | 55.95119 | -3.36324 | 117 ft | 12 kts | 59° |
| 2026-05-07 17:44 | 55.95132 | -3.36195 | 119 ft | 10 kts | 106° |
| 2026-05-07 17:44 | 55.95110 | -3.36090 | 117 ft | 10 kts | 110° |
| 2026-05-07 17:44 | 55.95086 | -3.35976 | 120 ft | 8 kts | 115° |
| 2026-05-07 17:44 | 55.95073 | -3.35930 | 120 ft | 3 kts | 119° |
| 2026-05-07 17:45 | 55.95061 | -3.35922 | 117 ft | 2 kts | 169° |
| 2026-05-07 17:45 | 55.95050 | -3.35935 | 119 ft | 2 kts | 219° |
| 2026-05-07 17:45 | 55.95042 | -3.35973 | 118 ft | 6 kts | 248° |
| 2026-05-07 17:45 | 55.95029 | -3.36028 | 118 ft | 3 kts | 248° |
| 2026-05-07 17:46 | 55.95026 | -3.36042 | 117 ft | 0 kts | 248° |